Tuesday, December 18, 2018, 4:17 PM EST
Back to Local

KSFM, Sanford, Sanford Regional Airport

Location: Sanford, ME, United States Lat: 43.4
Local Time: 4:17 PM EST (21:17 GMT) Lon: -70.717
Time Zone: US/Eastern Elev: 242 ft

Show me the last for .
Show Decoded

2018-12-18 14:56 METAR KSFM 181956Z AUTO 29009G19KT 10SM CLR M03/M11 A2985 RMK AO2 SLP113
                 T10331111 FZRANO PNO $ =
2018-12-18 13:56 METAR KSFM 181856Z AUTO 33016G29KT 10SM CLR M02/M11 A2981 RMK AO2 PK WND
                 34029/1848 SLP100 T10221111 FZRANO PNO $ =
2018-12-18 12:56 METAR KSFM 181756Z AUTO 31013G18KT 280V340 10SM CLR M03/M11 A2979 RMK AO2 PK WND
                 32028/1704 SLP094 6//// T10281111 11022 21061 53008 FZRANO PNO $ =
2018-12-18 11:56 METAR KSFM 181656Z AUTO 31013G23KT 280V350 10SM CLR M02/M11 A2978 RMK AO2 SLP090
                 T10221111 FZRANO PNO $ =
2018-12-18 10:56 METAR KSFM 181556Z AUTO 30015G20KT 10SM CLR M03/M12 A2977 RMK AO2 SLP087
                 T10331117 FZRANO PNO $ =
2018-12-18 09:56 METAR KSFM 181456Z AUTO 32010G16KT 10SM FEW120 M04/M12 A2977 RMK AO2 SLP086
                 6//// T10441117 51032 FZRANO PNO $ =
2018-12-18 08:56 METAR KSFM 181356Z AUTO 30013G18KT 10SM OVC110 M06/M12 A2975 RMK AO2 SLP079
                 T10561122 FZRANO PNO $ =
2018-12-18 07:56 METAR KSFM 181256Z AUTO 30013KT 10SM CLR M06/M12 A2971 RMK AO2 SLP066 T10611122
                 FZRANO PNO $ =
2018-12-18 06:56 METAR KSFM 181156Z AUTO 30014G20KT 10SM OVC100 M06/M12 A2967 RMK AO2 SLP055
                 6//// 7//// T10611122 11011 21061 53031 FZRANO PNO $ =
2018-12-18 05:56 METAR KSFM 181056Z AUTO 30015G21KT 10SM OVC110 M06/M13 A2964 RMK AO2 PK WND
                 29026/1021 SLP042 T10611128 FZRANO PNO $ =
2018-12-18 04:56 METAR KSFM 180956Z AUTO 29015G25KT 10SM BKN100 M06/M12 A2961 RMK AO2 PK WND
                 28027/0902 SLP033 T10561122 FZRANO PNO $ =
2018-12-18 03:56 METAR KSFM 180856Z AUTO 29014G27KT 10SM FEW095 M05/M11 A2958 RMK AO2 PK WND
                 27028/0825 SLP023 6//// T10501111 51030 FZRANO PNO $ =
2018-12-18 02:56 METAR KSFM 180756Z AUTO 29015G24KT 10SM CLR M04/M10 A2955 RMK AO2 PK WND
                 29026/0729 SLP014 T10391100 FZRANO PNO $ =
2018-12-18 01:56 METAR KSFM 180656Z AUTO 29021G28KT 10SM SCT100 M03/M09 A2953 RMK AO2 PK WND
                 30029/0623 SLP004 T10281094 FZRANO PNO $ =
2018-12-18 00:56 METAR KSFM 180556Z AUTO 29017G22KT 10SM CLR M01/M07 A2949 RMK AO2 PK WND
                 28029/0525 SLP992 6//// T10111067 10017 21011 53001 FZRANO PNO $ =
2018-12-17 23:56 METAR KSFM 180456Z AUTO 30011G19KT 10SM BKN100 01/M06 A2948 RMK AO2 PK WND
                 29028/0437 SLP987 T00061061 FZRANO PNO $ =
2018-12-17 22:56 METAR KSFM 180356Z AUTO 30010G18KT 10SM BKN110 01/M04 A2948 RMK AO2 SLP987
                 T00111039 400330000 FZRANO PNO $ =
2018-12-17 21:56 METAR KSFM 180256Z AUTO 30007KT 10SM BKN046 01/M03 A2949 RMK AO2 SLP991 6////
                 T00111033 50000 FZRANO PNO $ =
2018-12-17 20:56 METAR KSFM 180156Z AUTO 29008G16KT 10SM SCT050 BKN070 OVC090 02/M04 A2950 RMK
                 AO2 SLP994 T00171039 FZRANO PNO $ =
2018-12-17 19:56 METAR KSFM 180056Z AUTO 30011G16KT 10SM OVC055 02/M03 A2949 RMK AO2 SLP992
                 T00171033 FZRANO PNO $ =
2018-12-17 18:56 METAR KSFM 172356Z AUTO 29012G17KT 10SM OVC075 02/M03 A2949 RMK AO2 SLP991 6////
                 T00171028 10033 20006 50002 FZRANO PNO $ =
2018-12-17 17:56 METAR KSFM 172256Z AUTO 29006KT 10SM OVC047 02/M01 A2949 RMK AO2 SLP991
                 T00171006 FZRANO PNO $ =
2018-12-17 16:56 METAR KSFM 172156Z AUTO 28004KT 10SM BKN060 01/00 A2949 RMK AO2 SLP991 T00110000
                 FZRANO PNO $ =

Support USWX by starting your Amazon purchase here.